Terminal Aerodrome Forecast
Issued by NWS

Home | Current Version | Previous Version | Text Only | Print | Product List | Glossary On
Versions: 1 2 3 4 5 6 7 8 9 10 11 12 13 14 15 16 17 18 19
217
FTUS46 KMFR 212349
TAFLMT
TAF
KLMT 212349Z 2200/2224 29008KT P6SM SCT035 BKN050
     FM220700 15024G35KT 3SM -SN BR OVC030
     FM221600 17012KT 5SM -SHSN BR BKN035 OVC050=

USA.gov is the U.S. government's official web portal to all federal, state and local government web resources and services.